sensor_id;sensor_type;location;lat;lon;timestamp;temperature;humidity
31379;DHT22;61664;48.112;11.662;2022-11-20T00:01:23;8.70;82.10
31379;DHT22;61664;48.112;11.662;2022-11-20T00:03:53;8.70;82.10
31379;DHT22;61664;48.112;11.662;2022-11-20T00:06:22;8.70;82.40
31379;DHT22;61664;48.112;11.662;2022-11-20T00:08:49;8.80;82.60
31379;DHT22;61664;48.112;11.662;2022-11-20T00:11:21;8.70;82.60
31379;DHT22;61664;48.112;11.662;2022-11-20T00:13:52;8.70;82.50
31379;DHT22;61664;48.112;11.662;2022-11-20T00:16:23;8.70;82.40
31379;DHT22;61664;48.112;11.662;2022-11-20T00:18:51;8.70;82.80
31379;DHT22;61664;48.112;11.662;2022-11-20T00:21:20;8.70;82.80
31379;DHT22;61664;48.112;11.662;2022-11-20T00:23:50;8.70;82.80
31379;DHT22;61664;48.112;11.662;2022-11-20T00:26:22;8.80;82.90
31379;DHT22;61664;48.112;11.662;2022-11-20T00:28:52;8.80;82.80
31379;DHT22;61664;48.112;11.662;2022-11-20T00:31:26;8.80;82.50
31379;DHT22;61664;48.112;11.662;2022-11-20T00:33:53;8.90;82.60
31379;DHT22;61664;48.112;11.662;2022-11-20T00:36:23;8.90;82.60
31379;DHT22;61664;48.112;11.662;2022-11-20T00:38:53;8.80;82.50
31379;DHT22;61664;48.112;11.662;2022-11-20T00:41:21;8.80;82.40
31379;DHT22;61664;48.112;11.662;2022-11-20T00:43:49;8.80;82.30
31379;DHT22;61664;48.112;11.662;2022-11-20T00:46:19;8.80;82.60
31379;DHT22;61664;48.112;11.662;2022-11-20T00:48:48;8.80;82.20
31379;DHT22;61664;48.112;11.662;2022-11-20T00:51:20;8.90;82.20
31379;DHT22;61664;48.112;11.662;2022-11-20T00:53:49;8.80;81.40
31379;DHT22;61664;48.112;11.662;2022-11-20T00:56:18;8.90;81.10
31379;DHT22;61664;48.112;11.662;2022-11-20T00:58:47;8.80;80.80
31379;DHT22;61664;48.112;11.662;2022-11-20T01:01:20;8.70;80.80
31379;DHT22;61664;48.112;11.662;2022-11-20T01:03:51;8.70;81.10
31379;DHT22;61664;48.112;11.662;2022-11-20T01:06:22;8.70;81.50
31379;DHT22;61664;48.112;11.662;2022-11-20T01:08:50;8.70;81.40
31379;DHT22;61664;48.112;11.662;2022-11-20T01:11:21;8.70;81.40
31379;DHT22;61664;48.112;11.662;2022-11-20T01:14:00;8.70;81.40
31379;DHT22;61664;48.112;11.662;2022-11-20T01:16:34;8.60;81.80
31379;DHT22;61664;48.112;11.662;2022-11-20T01:19:06;8.60;81.50
31379;DHT22;61664;48.112;11.662;2022-11-20T01:21:41;8.60;81.60
31379;DHT22;61664;48.112;11.662;2022-11-20T01:24:14;8.60;81.80
31379;DHT22;61664;48.112;11.662;2022-11-20T01:26:44;8.60;81.20
31379;DHT22;61664;48.112;11.662;2022-11-20T01:29:21;8.70;82.10
31379;DHT22;61664;48.112;11.662;2022-11-20T01:31:50;8.60;81.80
31379;DHT22;61664;48.112;11.662;2022-11-20T01:34:20;8.60;82.00
31379;DHT22;61664;48.112;11.662;2022-11-20T01:36:49;8.60;82.00
31379;DHT22;61664;48.112;11.662;2022-11-20T01:39:21;8.60;82.40
31379;DHT22;61664;48.112;11.662;2022-11-20T01:41:52;8.70;82.30
31379;DHT22;61664;48.112;11.662;2022-11-20T01:44:59;8.70;82.50
31379;DHT22;61664;48.112;11.662;2022-11-20T01:47:41;8.70;78.90
31379;DHT22;61664;48.112;11.662;2022-11-20T01:50:18;8.60;79.80
31379;DHT22;61664;48.112;11.662;2022-11-20T01:53:01;8.60;81.50
31379;DHT22;61664;48.112;11.662;2022-11-20T01:55:38;8.70;80.90
31379;DHT22;61664;48.112;11.662;2022-11-20T01:58:11;8.70;82.00
31379;DHT22;61664;48.112;11.662;2022-11-20T02:00:40;8.70;82.60
31379;DHT22;61664;48.112;11.662;2022-11-20T02:03:10;8.70;82.70
31379;DHT22;61664;48.112;11.662;2022-11-20T02:05:58;8.70;82.30
31379;DHT22;61664;48.112;11.662;2022-11-20T02:08:33;8.70;81.00
31379;DHT22;61664;48.112;11.662;2022-11-20T02:11:00;8.70;82.50
31379;DHT22;61664;48.112;11.662;2022-11-20T02:13:27;8.70;82.30
31379;DHT22;61664;48.112;11.662;2022-11-20T02:18:54;8.70;80.40
31379;DHT22;61664;48.112;11.662;2022-11-20T02:24:15;8.70;79.50
31379;DHT22;61664;48.112;11.662;2022-11-20T02:26:46;8.70;80.40
31379;DHT22;61664;48.112;11.662;2022-11-20T02:29:23;8.70;82.00
31379;DHT22;61664;48.112;11.662;2022-11-20T02:31:57;8.70;81.00
31379;DHT22;61664;48.112;11.662;2022-11-20T02:34:27;8.70;81.80
31379;DHT22;61664;48.112;11.662;2022-11-20T02:36:56;8.70;82.20
31379;DHT22;61664;48.112;11.662;2022-11-20T02:39:27;8.70;82.00
31379;DHT22;61664;48.112;11.662;2022-11-20T02:41:56;8.70;81.60
31379;DHT22;61664;48.112;11.662;2022-11-20T02:44:23;8.70;81.50
31379;DHT22;61664;48.112;11.662;2022-11-20T02:46:50;8.70;81.90
31379;DHT22;61664;48.112;11.662;2022-11-20T02:49:17;8.70;81.90
31379;DHT22;61664;48.112;11.662;2022-11-20T02:51:44;8.70;81.80
31379;DHT22;61664;48.112;11.662;2022-11-20T02:54:11;8.80;81.60
31379;DHT22;61664;48.112;11.662;2022-11-20T02:56:39;8.70;81.50
31379;DHT22;61664;48.112;11.662;2022-11-20T02:59:06;8.70;81.70
31379;DHT22;61664;48.112;11.662;2022-11-20T03:01:33;8.60;81.80
31379;DHT22;61664;48.112;11.662;2022-11-20T03:04:00;8.70;81.60
31379;DHT22;61664;48.112;11.662;2022-11-20T03:06:27;8.60;81.60
31379;DHT22;61664;48.112;11.662;2022-11-20T03:08:54;8.60;81.70
31379;DHT22;61664;48.112;11.662;2022-11-20T03:11:21;8.70;81.70
31379;DHT22;61664;48.112;11.662;2022-11-20T03:13:48;8.60;81.40
31379;DHT22;61664;48.112;11.662;2022-11-20T03:16:22;8.70;82.00
31379;DHT22;61664;48.112;11.662;2022-11-20T03:18:52;8.60;80.20
31379;DHT22;61664;48.112;11.662;2022-11-20T03:21:20;8.70;81.50
31379;DHT22;61664;48.112;11.662;2022-11-20T03:23:47;8.70;82.00
31379;DHT22;61664;48.112;11.662;2022-11-20T03:26:22;8.70;81.90
31379;DHT22;61664;48.112;11.662;2022-11-20T03:28:56;8.70;81.00
31379;DHT22;61664;48.112;11.662;2022-11-20T03:31:28;8.70;81.90
31379;DHT22;61664;48.112;11.662;2022-11-20T03:33:57;8.70;81.90
31379;DHT22;61664;48.112;11.662;2022-11-20T03:36:26;8.80;82.00
31379;DHT22;61664;48.112;11.662;2022-11-20T03:38:55;8.70;82.00
31379;DHT22;61664;48.112;11.662;2022-11-20T03:41:25;8.80;82.10
31379;DHT22;61664;48.112;11.662;2022-11-20T03:43:58;8.80;81.80
31379;DHT22;61664;48.112;11.662;2022-11-20T03:46:27;8.80;81.10
31379;DHT22;61664;48.112;11.662;2022-11-20T03:48:55;8.80;81.80
31379;DHT22;61664;48.112;11.662;2022-11-20T03:51:25;8.80;81.00
31379;DHT22;61664;48.112;11.662;2022-11-20T03:53:58;8.80;80.40
31379;DHT22;61664;48.112;11.662;2022-11-20T03:56:29;8.80;81.10
31379;DHT22;61664;48.112;11.662;2022-11-20T03:58:58;8.70;80.90
31379;DHT22;61664;48.112;11.662;2022-11-20T04:01:27;8.80;81.20
31379;DHT22;61664;48.112;11.662;2022-11-20T04:03:57;8.80;81.20
31379;DHT22;61664;48.112;11.662;2022-11-20T04:06:27;8.70;81.20
31379;DHT22;61664;48.112;11.662;2022-11-20T04:08:57;8.80;81.00
31379;DHT22;61664;48.112;11.662;2022-11-20T04:11:27;8.80;81.20
31379;DHT22;61664;48.112;11.662;2022-11-20T04:14:00;8.80;80.70
31379;DHT22;61664;48.112;11.662;2022-11-20T04:16:31;8.90;80.70
31379;DHT22;61664;48.112;11.662;2022-11-20T04:19:02;8.80;80.60
31379;DHT22;61664;48.112;11.662;2022-11-20T04:21:31;8.80;80.70
31379;DHT22;61664;48.112;11.662;2022-11-20T04:23:58;8.80;80.60
31379;DHT22;61664;48.112;11.662;2022-11-20T04:26:27;8.80;80.80
31379;DHT22;61664;48.112;11.662;2022-11-20T04:28:56;8.70;80.70
31379;DHT22;61664;48.112;11.662;2022-11-20T04:31:29;8.80;80.50
31379;DHT22;61664;48.112;11.662;2022-11-20T04:34:04;8.70;79.60
31379;DHT22;61664;48.112;11.662;2022-11-20T04:36:33;8.70;79.20
31379;DHT22;61664;48.112;11.662;2022-11-20T04:39:03;8.80;81.00
31379;DHT22;61664;48.112;11.662;2022-11-20T04:41:34;8.80;80.80
31379;DHT22;61664;48.112;11.662;2022-11-20T04:44:04;8.80;80.60
31379;DHT22;61664;48.112;11.662;2022-11-20T04:46:34;8.80;81.00
31379;DHT22;61664;48.112;11.662;2022-11-20T04:49:04;8.80;80.70
31379;DHT22;61664;48.112;11.662;2022-11-20T04:51:32;8.70;80.80
31379;DHT22;61664;48.112;11.662;2022-11-20T04:54:00;8.80;80.50
31379;DHT22;61664;48.112;11.662;2022-11-20T04:56:27;8.80;80.60
31379;DHT22;61664;48.112;11.662;2022-11-20T04:58:54;8.80;80.60
31379;DHT22;61664;48.112;11.662;2022-11-20T05:01:23;8.70;80.50
31379;DHT22;61664;48.112;11.662;2022-11-20T05:03:51;8.80;80.40
31379;DHT22;61664;48.112;11.662;2022-11-20T05:06:19;8.80;80.60
31379;DHT22;61664;48.112;11.662;2022-11-20T05:08:47;8.70;80.40
31379;DHT22;61664;48.112;11.662;2022-11-20T05:11:17;8.70;80.60
31379;DHT22;61664;48.112;11.662;2022-11-20T05:13:46;8.70;80.30
31379;DHT22;61664;48.112;11.662;2022-11-20T05:16:18;8.70;80.40
31379;DHT22;61664;48.112;11.662;2022-11-20T05:18:47;8.80;80.00
31379;DHT22;61664;48.112;11.662;2022-11-20T05:21:15;8.70;80.90
31379;DHT22;61664;48.112;11.662;2022-11-20T05:23:44;8.70;81.00
31379;DHT22;61664;48.112;11.662;2022-11-20T05:26:17;8.80;81.00
31379;DHT22;61664;48.112;11.662;2022-11-20T05:28:46;8.70;80.90
31379;DHT22;61664;48.112;11.662;2022-11-20T05:31:24;8.70;80.90
31379;DHT22;61664;48.112;11.662;2022-11-20T05:33:55;8.70;78.20
31379;DHT22;61664;48.112;11.662;2022-11-20T05:36:23;8.80;80.80
31379;DHT22;61664;48.112;11.662;2022-11-20T05:38:50;8.70;81.10
31379;DHT22;61664;48.112;11.662;2022-11-20T05:41:23;8.70;81.10
31379;DHT22;61664;48.112;11.662;2022-11-20T05:43:51;8.80;81.30
31379;DHT22;61664;48.112;11.662;2022-11-20T05:46:20;8.80;81.00
31379;DHT22;61664;48.112;11.662;2022-11-20T05:48:54;8.70;81.10
31379;DHT22;61664;48.112;11.662;2022-11-20T05:51:21;8.80;81.20
31379;DHT22;61664;48.112;11.662;2022-11-20T05:53:48;8.80;81.10
31379;DHT22;61664;48.112;11.662;2022-11-20T05:56:20;8.80;80.40
31379;DHT22;61664;48.112;11.662;2022-11-20T05:58:48;8.80;80.50
31379;DHT22;61664;48.112;11.662;2022-11-20T06:01:19;8.80;81.00
31379;DHT22;61664;48.112;11.662;2022-11-20T06:03:48;8.80;81.00
31379;DHT22;61664;48.112;11.662;2022-11-20T06:06:18;8.80;81.20
31379;DHT22;61664;48.112;11.662;2022-11-20T06:08:46;8.80;81.10
31379;DHT22;61664;48.112;11.662;2022-11-20T06:11:14;8.80;81.00
31379;DHT22;61664;48.112;11.662;2022-11-20T06:13:42;8.80;80.70
31379;DHT22;61664;48.112;11.662;2022-11-20T06:16:11;8.80;80.70
31379;DHT22;61664;48.112;11.662;2022-11-20T06:18:39;8.70;80.70
31379;DHT22;61664;48.112;11.662;2022-11-20T06:23:39;8.80;80.20
31379;DHT22;61664;48.112;11.662;2022-11-20T06:26:12;8.80;80.20
31379;DHT22;61664;48.112;11.662;2022-11-20T06:28:41;8.70;79.60
31379;DHT22;61664;48.112;11.662;2022-11-20T06:31:11;8.70;79.80
31379;DHT22;61664;48.112;11.662;2022-11-20T06:33:42;8.70;78.90
31379;DHT22;61664;48.112;11.662;2022-11-20T06:36:10;8.60;79.10
31379;DHT22;61664;48.112;11.662;2022-11-20T06:38:39;8.60;79.20
31379;DHT22;61664;48.112;11.662;2022-11-20T06:41:11;8.60;79.50
31379;DHT22;61664;48.112;11.662;2022-11-20T06:43:40;8.60;79.60
31379;DHT22;61664;48.112;11.662;2022-11-20T06:46:09;8.50;79.70
31379;DHT22;61664;48.112;11.662;2022-11-20T06:48:37;8.60;79.00
31379;DHT22;61664;48.112;11.662;2022-11-20T06:51:05;8.50;79.80
31379;DHT22;61664;48.112;11.662;2022-11-20T06:53:34;8.50;80.30
31379;DHT22;61664;48.112;11.662;2022-11-20T06:56:02;8.60;81.40
31379;DHT22;61664;48.112;11.662;2022-11-20T06:58:31;8.60;81.50
31379;DHT22;61664;48.112;11.662;2022-11-20T07:01:00;8.60;80.80
31379;DHT22;61664;48.112;11.662;2022-11-20T07:03:28;8.70;80.60
31379;DHT22;61664;48.112;11.662;2022-11-20T07:05:56;8.60;80.00
31379;DHT22;61664;48.112;11.662;2022-11-20T07:08:24;8.70;79.90
31379;DHT22;61664;48.112;11.662;2022-11-20T07:10:51;8.70;79.90
31379;DHT22;61664;48.112;11.662;2022-11-20T07:13:20;8.70;80.30
31379;DHT22;61664;48.112;11.662;2022-11-20T07:15:47;8.70;79.80
31379;DHT22;61664;48.112;11.662;2022-11-20T07:18:14;8.80;79.50
31379;DHT22;61664;48.112;11.662;2022-11-20T07:20:41;8.70;79.50
31379;DHT22;61664;48.112;11.662;2022-11-20T07:23:07;8.70;79.80
31379;DHT22;61664;48.112;11.662;2022-11-20T07:25:34;8.70;80.40
31379;DHT22;61664;48.112;11.662;2022-11-20T07:28:02;8.70;79.80
31379;DHT22;61664;48.112;11.662;2022-11-20T07:30:30;8.80;80.10
31379;DHT22;61664;48.112;11.662;2022-11-20T07:32:57;8.80;80.60
31379;DHT22;61664;48.112;11.662;2022-11-20T07:35:24;8.80;80.10
31379;DHT22;61664;48.112;11.662;2022-11-20T07:37:52;8.80;79.90
31379;DHT22;61664;48.112;11.662;2022-11-20T07:40:19;8.80;80.30
31379;DHT22;61664;48.112;11.662;2022-11-20T07:42:53;8.80;79.90
31379;DHT22;61664;48.112;11.662;2022-11-20T07:45:23;8.90;77.80
31379;DHT22;61664;48.112;11.662;2022-11-20T07:47:51;8.90;79.90
31379;DHT22;61664;48.112;11.662;2022-11-20T07:50:19;8.90;80.30
31379;DHT22;61664;48.112;11.662;2022-11-20T07:52:46;9.00;79.90
31379;DHT22;61664;48.112;11.662;2022-11-20T07:55:14;8.90;80.00
31379;DHT22;61664;48.112;11.662;2022-11-20T07:57:41;9.00;79.60
31379;DHT22;61664;48.112;11.662;2022-11-20T08:00:10;9.00;80.40
31379;DHT22;61664;48.112;11.662;2022-11-20T08:02:41;9.00;79.20
31379;DHT22;61664;48.112;11.662;2022-11-20T08:05:09;9.00;77.30
31379;DHT22;61664;48.112;11.662;2022-11-20T08:07:41;9.00;78.50
31379;DHT22;61664;48.112;11.662;2022-11-20T08:10:12;9.00;77.20
31379;DHT22;61664;48.112;11.662;2022-11-20T08:12:45;9.00;78.40
31379;DHT22;61664;48.112;11.662;2022-11-20T08:15:31;9.00;78.50
31379;DHT22;61664;48.112;11.662;2022-11-20T08:18:04;9.10;78.30
31379;DHT22;61664;48.112;11.662;2022-11-20T08:20:51;9.10;77.50
31379;DHT22;61664;48.112;11.662;2022-11-20T08:23:18;9.10;79.70
31379;DHT22;61664;48.112;11.662;2022-11-20T08:25:49;9.10;78.80
31379;DHT22;61664;48.112;11.662;2022-11-20T08:28:17;9.10;76.70
31379;DHT22;61664;48.112;11.662;2022-11-20T08:30:49;9.10;78.90
31379;DHT22;61664;48.112;11.662;2022-11-20T08:33:17;9.20;79.00
31379;DHT22;61664;48.112;11.662;2022-11-20T08:35:44;9.20;79.00
31379;DHT22;61664;48.112;11.662;2022-11-20T08:38:11;9.20;79.00
31379;DHT22;61664;48.112;11.662;2022-11-20T08:40:38;9.30;79.20
31379;DHT22;61664;48.112;11.662;2022-11-20T08:43:05;9.40;79.30
31379;DHT22;61664;48.112;11.662;2022-11-20T08:45:32;9.30;79.10
31379;DHT22;61664;48.112;11.662;2022-11-20T08:48:02;9.30;78.90
31379;DHT22;61664;48.112;11.662;2022-11-20T08:50:30;9.40;78.60
31379;DHT22;61664;48.112;11.662;2022-11-20T08:53:03;9.50;79.30
31379;DHT22;61664;48.112;11.662;2022-11-20T08:55:31;9.50;76.90
31379;DHT22;61664;48.112;11.662;2022-11-20T08:57:58;9.50;78.10
31379;DHT22;61664;48.112;11.662;2022-11-20T09:00:24;9.40;78.50
31379;DHT22;61664;48.112;11.662;2022-11-20T09:02:51;9.60;78.10
31379;DHT22;61664;48.112;11.662;2022-11-20T09:05:18;9.60;78.70
31379;DHT22;61664;48.112;11.662;2022-11-20T09:07:45;9.60;78.10
31379;DHT22;61664;48.112;11.662;2022-11-20T09:10:12;9.70;77.80
31379;DHT22;61664;48.112;11.662;2022-11-20T09:12:50;9.70;77.40
31379;DHT22;61664;48.112;11.662;2022-11-20T09:15:19;9.70;77.70
31379;DHT22;61664;48.112;11.662;2022-11-20T09:17:55;9.80;78.20
31379;DHT22;61664;48.112;11.662;2022-11-20T09:20:25;9.80;75.60
31379;DHT22;61664;48.112;11.662;2022-11-20T09:22:55;9.90;78.60
31379;DHT22;61664;48.112;11.662;2022-11-20T09:25:22;9.90;78.40
31379;DHT22;61664;48.112;11.662;2022-11-20T09:27:58;9.90;78.50
31379;DHT22;61664;48.112;11.662;2022-11-20T09:30:26;9.90;75.90
31379;DHT22;61664;48.112;11.662;2022-11-20T09:32:54;10.00;78.60
31379;DHT22;61664;48.112;11.662;2022-11-20T09:35:21;10.10;78.00
31379;DHT22;61664;48.112;11.662;2022-11-20T09:37:48;10.10;77.60
31379;DHT22;61664;48.112;11.662;2022-11-20T09:40:27;10.10;77.40
31379;DHT22;61664;48.112;11.662;2022-11-20T09:54:18;10.40;78.00
31379;DHT22;61664;48.112;11.662;2022-11-20T09:57:02;10.40;76.10
31379;DHT22;61664;48.112;11.662;2022-11-20T09:59:41;10.50;73.40
31379;DHT22;61664;48.112;11.662;2022-11-20T10:04:59;10.60;70.10
31379;DHT22;61664;48.112;11.662;2022-11-20T10:13:27;10.60;68.40
31379;DHT22;61664;48.112;11.662;2022-11-20T10:16:16;10.60;76.10
31379;DHT22;61664;48.112;11.662;2022-11-20T10:30:09;11.00;62.70
31379;DHT22;61664;48.112;11.662;2022-11-20T10:32:43;11.10;67.30
31379;DHT22;61664;48.112;11.662;2022-11-20T10:35:27;11.10;74.90
31379;DHT22;61664;48.112;11.662;2022-11-20T10:38:01;11.20;72.10
31379;DHT22;61664;48.112;11.662;2022-11-20T10:40:42;11.20;74.80
31379;DHT22;61664;48.112;11.662;2022-11-20T10:43:21;11.30;73.80
31379;DHT22;61664;48.112;11.662;2022-11-20T10:46:05;11.40;68.60
31379;DHT22;61664;48.112;11.662;2022-11-20T10:48:38;11.50;75.60
31379;DHT22;61664;48.112;11.662;2022-11-20T10:56:56;11.90;75.80
31379;DHT22;61664;48.112;11.662;2022-11-20T11:07:54;12.40;62.30
31379;DHT22;61664;48.112;11.662;2022-11-20T11:10:33;12.40;68.50
31379;DHT22;61664;48.112;11.662;2022-11-20T11:13:02;12.30;68.00
31379;DHT22;61664;48.112;11.662;2022-11-20T11:15:40;12.20;70.00
31379;DHT22;61664;48.112;11.662;2022-11-20T11:18:11;12.10;61.10
31379;DHT22;61664;48.112;11.662;2022-11-20T11:20:38;12.00;65.40
31379;DHT22;61664;48.112;11.662;2022-11-20T11:23:10;12.00;70.40
31379;DHT22;61664;48.112;11.662;2022-11-20T11:25:59;11.90;70.00
31379;DHT22;61664;48.112;11.662;2022-11-20T11:28:28;11.80;65.40
31379;DHT22;61664;48.112;11.662;2022-11-20T11:30:55;11.70;69.60
31379;DHT22;61664;48.112;11.662;2022-11-20T11:33:25;11.60;69.90
31379;DHT22;61664;48.112;11.662;2022-11-20T11:35:59;11.50;71.50
31379;DHT22;61664;48.112;11.662;2022-11-20T11:38:40;11.50;70.90
31379;DHT22;61664;48.112;11.662;2022-11-20T11:41:15;11.50;63.80
31379;DHT22;61664;48.112;11.662;2022-11-20T11:43:53;11.50;69.80
31379;DHT22;61664;48.112;11.662;2022-11-20T11:46:55;11.50;65.00
31379;DHT22;61664;48.112;11.662;2022-11-20T11:49:23;11.50;59.70
31379;DHT22;61664;48.112;11.662;2022-11-20T11:55:01;11.50;58.20
31379;DHT22;61664;48.112;11.662;2022-11-20T11:57:57;11.50;60.40
31379;DHT22;61664;48.112;11.662;2022-11-20T12:00:27;11.50;70.40
31379;DHT22;61664;48.112;11.662;2022-11-20T12:05:59;11.50;66.20
31379;DHT22;61664;48.112;11.662;2022-11-20T12:08:42;11.70;70.70
31379;DHT22;61664;48.112;11.662;2022-11-20T12:14:33;11.60;69.90
31379;DHT22;61664;48.112;11.662;2022-11-20T12:17:03;11.70;71.60
31379;DHT22;61664;48.112;11.662;2022-11-20T12:19:31;11.70;74.00
31379;DHT22;61664;48.112;11.662;2022-11-20T12:25:02;11.80;69.80
31379;DHT22;61664;48.112;11.662;2022-11-20T12:30:14;11.60;68.00
31379;DHT22;61664;48.112;11.662;2022-11-20T12:32:52;11.40;66.40
31379;DHT22;61664;48.112;11.662;2022-11-20T12:44:59;10.60;70.40
31379;DHT22;61664;48.112;11.662;2022-11-20T12:53:54;10.10;74.20
31379;DHT22;61664;48.112;11.662;2022-11-20T13:02:30;9.80;68.70
31379;DHT22;61664;48.112;11.662;2022-11-20T13:08:02;9.70;72.50
31379;DHT22;61664;48.112;11.662;2022-11-20T13:10:52;9.60;77.40
31379;DHT22;61664;48.112;11.662;2022-11-20T13:13:31;9.60;72.40
31379;DHT22;61664;48.112;11.662;2022-11-20T13:16:16;9.60;77.10
31379;DHT22;61664;48.112;11.662;2022-11-20T13:18:53;9.60;72.20
31379;DHT22;61664;48.112;11.662;2022-11-20T13:21:36;9.50;76.60
31379;DHT22;61664;48.112;11.662;2022-11-20T13:29:36;9.50;73.20
31379;DHT22;61664;48.112;11.662;2022-11-20T13:32:14;9.50;76.10
31379;DHT22;61664;48.112;11.662;2022-11-20T13:34:58;9.60;72.50
31379;DHT22;61664;48.112;11.662;2022-11-20T13:37:36;9.40;73.50
31379;DHT22;61664;48.112;11.662;2022-11-20T13:40:19;9.50;72.60
31379;DHT22;61664;48.112;11.662;2022-11-20T13:42:56;9.30;72.60
31379;DHT22;61664;48.112;11.662;2022-11-20T13:46:00;9.30;76.10
31379;DHT22;61664;48.112;11.662;2022-11-20T13:48:33;9.30;72.50
31379;DHT22;61664;48.112;11.662;2022-11-20T14:02:27;9.30;77.20
31379;DHT22;61664;48.112;11.662;2022-11-20T14:04:58;9.30;78.50
31379;DHT22;61664;48.112;11.662;2022-11-20T14:07:38;9.30;78.50
31379;DHT22;61664;48.112;11.662;2022-11-20T14:10:28;9.40;75.30
31379;DHT22;61664;48.112;11.662;2022-11-20T14:12:58;9.40;73.20
31379;DHT22;61664;48.112;11.662;2022-11-20T14:15:36;9.50;78.80
31379;DHT22;61664;48.112;11.662;2022-11-20T14:18:19;9.50;77.90
31379;DHT22;61664;48.112;11.662;2022-11-20T14:20:48;9.50;77.60
31379;DHT22;61664;48.112;11.662;2022-11-20T14:23:27;9.60;78.30
31379;DHT22;61664;48.112;11.662;2022-11-20T14:25:56;9.50;73.10
31379;DHT22;61664;48.112;11.662;2022-11-20T14:28:28;9.50;78.00
31379;DHT22;61664;48.112;11.662;2022-11-20T14:30:56;9.60;76.60
31379;DHT22;61664;48.112;11.662;2022-11-20T14:33:26;9.60;78.40
31379;DHT22;61664;48.112;11.662;2022-11-20T14:35:57;9.60;78.10
31379;DHT22;61664;48.112;11.662;2022-11-20T14:38:29;9.60;77.00
31379;DHT22;61664;48.112;11.662;2022-11-20T14:41:16;9.70;78.40
31379;DHT22;61664;48.112;11.662;2022-11-20T14:44:08;9.70;72.70
31379;DHT22;61664;48.112;11.662;2022-11-20T14:46:35;9.80;78.00
31379;DHT22;61664;48.112;11.662;2022-11-20T14:49:02;9.70;78.00
31379;DHT22;61664;48.112;11.662;2022-11-20T14:51:39;9.70;77.80
31379;DHT22;61664;48.112;11.662;2022-11-20T14:54:20;9.70;75.60
31379;DHT22;61664;48.112;11.662;2022-11-20T14:59:31;9.80;75.50
31379;DHT22;61664;48.112;11.662;2022-11-20T15:02:09;9.80;76.70
31379;DHT22;61664;48.112;11.662;2022-11-20T15:04:51;9.80;76.10
31379;DHT22;61664;48.112;11.662;2022-11-20T15:07:30;9.70;73.80
31379;DHT22;61664;48.112;11.662;2022-11-20T15:12:31;9.70;76.40
31379;DHT22;61664;48.112;11.662;2022-11-20T15:14:59;9.70;75.30
31379;DHT22;61664;48.112;11.662;2022-11-20T15:17:27;9.70;75.80
31379;DHT22;61664;48.112;11.662;2022-11-20T15:19:54;9.70;76.10
31379;DHT22;61664;48.112;11.662;2022-11-20T15:22:22;9.70;76.20
31379;DHT22;61664;48.112;11.662;2022-11-20T15:24:48;9.60;76.30
31379;DHT22;61664;48.112;11.662;2022-11-20T15:27:15;9.70;75.90
31379;DHT22;61664;48.112;11.662;2022-11-20T15:29:42;9.60;76.20
31379;DHT22;61664;48.112;11.662;2022-11-20T15:32:09;9.60;76.80
31379;DHT22;61664;48.112;11.662;2022-11-20T15:34:39;9.70;77.00
31379;DHT22;61664;48.112;11.662;2022-11-20T15:37:06;9.70;77.30
31379;DHT22;61664;48.112;11.662;2022-11-20T15:39:33;9.60;77.20
31379;DHT22;61664;48.112;11.662;2022-11-20T15:41:59;9.70;76.60
31379;DHT22;61664;48.112;11.662;2022-11-20T15:44:26;9.60;76.90
31379;DHT22;61664;48.112;11.662;2022-11-20T15:46:53;9.70;76.80
31379;DHT22;61664;48.112;11.662;2022-11-20T15:49:20;9.70;76.60
31379;DHT22;61664;48.112;11.662;2022-11-20T15:51:50;9.60;76.00
31379;DHT22;61664;48.112;11.662;2022-11-20T15:54:20;9.60;76.00
31379;DHT22;61664;48.112;11.662;2022-11-20T15:56:49;9.60;76.20
31379;DHT22;61664;48.112;11.662;2022-11-20T15:59:19;9.50;75.70
31379;DHT22;61664;48.112;11.662;2022-11-20T16:01:46;9.50;66.40
31379;DHT22;61664;48.112;11.662;2022-11-20T16:04:15;9.50;75.90
31379;DHT22;61664;48.112;11.662;2022-11-20T16:06:43;9.50;75.70
31379;DHT22;61664;48.112;11.662;2022-11-20T16:09:10;9.40;75.80
31379;DHT22;61664;48.112;11.662;2022-11-20T16:11:37;9.30;76.20
31379;DHT22;61664;48.112;11.662;2022-11-20T16:14:04;9.20;76.50
31379;DHT22;61664;48.112;11.662;2022-11-20T16:16:51;9.30;76.70
31379;DHT22;61664;48.112;11.662;2022-11-20T16:19:18;9.20;76.70
31379;DHT22;61664;48.112;11.662;2022-11-20T16:21:45;9.10;77.00
31379;DHT22;61664;48.112;11.662;2022-11-20T16:24:13;9.10;77.00
31379;DHT22;61664;48.112;11.662;2022-11-20T16:26:42;9.00;76.80
31379;DHT22;61664;48.112;11.662;2022-11-20T16:29:09;9.00;77.00
31379;DHT22;61664;48.112;11.662;2022-11-20T16:31:36;9.00;76.90
31379;DHT22;61664;48.112;11.662;2022-11-20T16:34:06;8.90;76.90
31379;DHT22;61664;48.112;11.662;2022-11-20T16:36:49;8.90;76.70
31379;DHT22;61664;48.112;11.662;2022-11-20T16:39:16;8.90;77.10
31379;DHT22;61664;48.112;11.662;2022-11-20T16:41:49;8.90;77.00
31379;DHT22;61664;48.112;11.662;2022-11-20T16:44:16;8.70;77.20
31379;DHT22;61664;48.112;11.662;2022-11-20T16:46:42;8.80;77.30
31379;DHT22;61664;48.112;11.662;2022-11-20T16:49:13;8.70;77.30
31379;DHT22;61664;48.112;11.662;2022-11-20T16:51:40;8.70;76.60
31379;DHT22;61664;48.112;11.662;2022-11-20T16:54:09;8.70;77.40
31379;DHT22;61664;48.112;11.662;2022-11-20T16:56:43;8.70;77.50
31379;DHT22;61664;48.112;11.662;2022-11-20T16:59:13;8.60;77.60
31379;DHT22;61664;48.112;11.662;2022-11-20T17:01:40;8.60;77.60
31379;DHT22;61664;48.112;11.662;2022-11-20T17:04:08;8.60;77.80
31379;DHT22;61664;48.112;11.662;2022-11-20T17:06:37;8.60;77.80
31379;DHT22;61664;48.112;11.662;2022-11-20T17:09:06;8.60;77.70
31379;DHT22;61664;48.112;11.662;2022-11-20T17:11:36;8.50;77.80
31379;DHT22;61664;48.112;11.662;2022-11-20T17:14:04;8.40;77.70
31379;DHT22;61664;48.112;11.662;2022-11-20T17:16:35;8.40;77.80
31379;DHT22;61664;48.112;11.662;2022-11-20T17:19:04;8.40;77.70
31379;DHT22;61664;48.112;11.662;2022-11-20T17:21:32;8.40;77.70
31379;DHT22;61664;48.112;11.662;2022-11-20T17:24:04;8.40;77.60
31379;DHT22;61664;48.112;11.662;2022-11-20T17:26:33;8.30;77.40
31379;DHT22;61664;48.112;11.662;2022-11-20T17:29:04;8.40;77.80
31379;DHT22;61664;48.112;11.662;2022-11-20T17:31:33;8.40;77.50
31379;DHT22;61664;48.112;11.662;2022-11-20T17:34:01;8.20;77.50
31379;DHT22;61664;48.112;11.662;2022-11-20T17:36:29;8.20;77.70
31379;DHT22;61664;48.112;11.662;2022-11-20T17:38:57;8.20;77.80
31379;DHT22;61664;48.112;11.662;2022-11-20T17:41:26;8.20;77.80
31379;DHT22;61664;48.112;11.662;2022-11-20T17:43:56;8.10;77.60
31379;DHT22;61664;48.112;11.662;2022-11-20T17:46:27;8.10;77.60
31379;DHT22;61664;48.112;11.662;2022-11-20T17:48:56;8.10;77.60
31379;DHT22;61664;48.112;11.662;2022-11-20T17:51:25;8.10;77.90